Time,TemperatureF,DewpointF,PressureIn,WindDirection,WindDirectionDegrees,WindSpeedMPH,WindSpeedGustMPH,Humidity,HourlyPrecipIn,Conditions,Clouds,dailyrainin,SolarRadiationWatts/m^2,SoftwareType,DateUTC
2013-07-14 00:01:00,81.2,75.5,29.88,SE,146,3.5,3.5,83,0.00,CLR,SKC,0.00,0.0,WeatherDisplay:10.37,2013-07-14 05:01:00,
2013-07-14 00:06:00,81.2,75.5,29.88,SSE,147,4.0,4.0,83,0.00,CLR,SKC,0.00,0.0,WeatherDisplay:10.37,2013-07-14 05:06:00,
2013-07-14 00:11:00,81.3,75.6,29.87,SE,141,3.5,3.5,83,0.00,CLR,SKC,0.00,0.0,WeatherDisplay:10.37,2013-07-14 05:11:00,
2013-07-14 00:16:00,81.3,76.0,29.87,SSE,159,2.3,2.3,84,0.00,CLR,SKC,0.00,0.0,WeatherDisplay:10.37,2013-07-14 05:16:00,
2013-07-14 00:21:00,81.1,75.8,29.87,NNW,332,3.5,3.5,84,0.00,CLR,SKC,0.00,0.0,WeatherDisplay:10.37,2013-07-14 05:21:00,
2013-07-14 00:26:00,81.1,75.8,29.87,SSE,160,3.5,3.5,84,0.00,CLR,SKC,0.00,0.0,WeatherDisplay:10.37,2013-07-14 05:26:00,
2013-07-14 00:31:00,81.1,75.8,29.87,SSW,201,3.5,3.5,84,0.00,CLR,SKC,0.00,0.0,WeatherDisplay:10.37,2013-07-14 05:31:00,
2013-07-14 00:36:00,81.0,75.7,29.87,ESE,121,4.6,4.6,84,0.00,CLR,SKC,0.00,0.0,WeatherDisplay:10.37,2013-07-14 05:36:00,
2013-07-14 00:41:00,81.0,76.1,29.87,SSW,208,2.3,2.3,85,0.00,CLR,SKC,0.00,0.0,WeatherDisplay:10.37,2013-07-14 05:41:00,
2013-07-14 00:46:00,81.0,76.1,29.87,South,171,4.6,4.6,85,0.00,CLR,SKC,0.00,0.0,WeatherDisplay:10.37,2013-07-14 05:46:00,
2013-07-14 00:51:00,80.9,76.0,29.87,South,190,4.6,4.6,85,0.00,CLR,SKC,0.00,0.0,WeatherDisplay:10.37,2013-07-14 05:51:00,
2013-07-14 00:56:00,80.9,76.0,29.87,SSE,151,5.8,5.8,85,0.00,CLR,SKC,0.00,0.0,WeatherDisplay:10.37,2013-07-14 05:56:00,
2013-07-14 01:01:00,81.0,76.4,29.87,SSW,207,2.0,2.0,86,0.00,CLR,SKC,0.00,0.0,WeatherDisplay:10.37,2013-07-14 06:01:00,
2013-07-14 01:06:00,81.0,76.4,29.87,SSW,200,3.5,3.5,86,0.00,CLR,SKC,0.00,0.0,WeatherDisplay:10.37,2013-07-14 06:06:00,
2013-07-14 01:11:00,81.0,76.4,29.87,WSW,247,3.5,3.5,86,0.00,CLR,SKC,0.00,0.0,WeatherDisplay:10.37,2013-07-14 06:11:00,
2013-07-14 01:16:00,81.0,76.4,29.87,West,270,1.1,1.1,86,0.00,CLR,SKC,0.00,0.0,WeatherDisplay:10.37,2013-07-14 06:16:00,
2013-07-14 01:21:00,81.0,76.4,29.87,ENE,65,3.5,3.5,86,0.00,CLR,SKC,0.00,0.0,WeatherDisplay:10.37,2013-07-14 06:21:00,
2013-07-14 01:26:00,81.0,76.4,29.86,SW,228,4.6,4.6,86,0.00,CLR,SKC,0.00,0.0,WeatherDisplay:10.37,2013-07-14 06:26:00,
2013-07-14 01:31:00,80.9,76.3,29.86,South,172,9.0,9.0,86,0.00,CLR,SKC,0.00,0.0,WeatherDisplay:10.37,2013-07-14 06:31:00,
2013-07-14 01:36:00,81.1,76.5,29.86,SSE,153,3.5,3.5,86,0.00,CLR,SKC,0.00,0.0,WeatherDisplay:10.37,2013-07-14 06:36:00,
2013-07-14 01:41:00,81.1,76.5,29.85,SW,225,4.0,4.0,86,0.00,CLR,SKC,0.00,0.0,WeatherDisplay:10.37,2013-07-14 06:41:00,
2013-07-14 01:46:00,81.1,76.5,29.85,NW,323,3.5,3.5,86,0.00,CLR,SKC,0.00,0.0,WeatherDisplay:10.37,2013-07-14 06:46:00,
2013-07-14 01:51:00,81.2,77.0,29.85,SSE,150,11.5,11.5,87,0.00,CLR,SKC,0.00,0.0,WeatherDisplay:10.37,2013-07-14 06:51:00,
2013-07-14 01:56:00,81.2,77.0,29.85,SE,129,6.9,6.9,87,0.00,CLR,SKC,0.00,0.0,WeatherDisplay:10.37,2013-07-14 06:56:00,
2013-07-14 02:01:00,81.3,77.1,29.85,SSW,192,4.6,4.6,87,0.00,CLR,SKC,0.00,0.0,WeatherDisplay:10.37,2013-07-14 07:01:00,
2013-07-14 02:06:00,81.3,77.1,29.85,West,259,3.5,3.5,87,0.00,CLR,SKC,0.00,0.0,WeatherDisplay:10.37,2013-07-14 07:06:00,
2013-07-14 02:11:00,81.2,77.0,29.86,SW,236,0.0,0.5,87,0.00,CLR,SKC,0.00,0.0,WeatherDisplay:10.37,2013-07-14 07:11:00,
2013-07-14 02:16:00,81.3,77.1,29.86,South,184,2.3,2.3,87,0.00,CLR,SKC,0.00,0.0,WeatherDisplay:10.37,2013-07-14 07:16:00,
2013-07-14 02:21:00,81.2,77.0,29.86,NW,317,4.6,4.6,87,0.00,CLR,SKC,0.00,0.0,WeatherDisplay:10.37,2013-07-14 07:21:00,
2013-07-14 02:26:00,81.2,77.0,29.84,ENE,71,5.8,5.8,87,0.00,CLR,SKC,0.00,0.0,WeatherDisplay:10.37,2013-07-14 07:26:00,
2013-07-14 02:31:00,81.2,76.6,29.84,SE,128,4.6,4.6,86,0.00,CLR,SKC,0.00,0.0,WeatherDisplay:10.37,2013-07-14 07:31:00,
2013-07-14 02:36:00,81.2,76.6,29.84,NE,55,5.8,5.8,86,0.00,CLR,SKC,0.00,0.0,WeatherDisplay:10.37,2013-07-14 07:36:00,
2013-07-14 02:41:00,81.2,76.6,29.85,South,185,4.0,4.0,86,0.00,CLR,SKC,0.00,0.0,WeatherDisplay:10.37,2013-07-14 07:41:00,
2013-07-14 02:46:00,81.1,76.5,29.85,SSE,161,5.8,5.8,86,0.00,CLR,SKC,0.00,0.0,WeatherDisplay:10.37,2013-07-14 07:46:00,
2013-07-14 02:51:00,81.2,76.6,29.85,SW,225,4.0,4.0,86,0.00,CLR,SKC,0.00,0.0,WeatherDisplay:10.37,2013-07-14 07:51:00,
2013-07-14 02:56:00,81.1,76.9,29.84,South,177,3.5,3.5,87,0.00,CLR,SKC,0.00,0.0,WeatherDisplay:10.37,2013-07-14 07:56:00,
2013-07-14 03:01:00,81.0,76.8,29.84,South,184,4.0,4.0,87,0.00,CLR,SKC,0.00,0.0,WeatherDisplay:10.37,2013-07-14 08:01:00,
2013-07-14 03:06:00,81.0,76.8,29.84,SE,138,3.5,3.5,87,0.00,CLR,SKC,0.00,0.0,WeatherDisplay:10.37,2013-07-14 08:06:00,
2013-07-14 03:11:00,80.9,76.7,29.84,NNE,33,4.6,4.6,87,0.00,CLR,SKC,0.00,0.0,WeatherDisplay:10.37,2013-07-14 08:11:00,
2013-07-14 03:16:00,80.9,76.7,29.84,SSW,201,5.8,5.8,87,0.00,CLR,SKC,0.00,0.0,WeatherDisplay:10.37,2013-07-14 08:16:00,
2013-07-14 03:21:00,80.9,76.7,29.84,SE,146,2.3,2.3,87,0.00,CLR,SKC,0.00,0.0,WeatherDisplay:10.37,2013-07-14 08:21:00,
2013-07-14 03:26:00,80.9,76.7,29.84,SSE,153,4.6,4.6,87,0.00,CLR,SKC,0.00,0.0,WeatherDisplay:10.37,2013-07-14 08:26:00,
2013-07-14 03:31:00,80.9,76.7,29.84,South,177,6.0,6.0,87,0.00,CLR,SKC,0.00,0.0,WeatherDisplay:10.37,2013-07-14 08:31:00,
2013-07-14 03:36:00,80.9,76.7,29.84,SE,136,3.5,3.5,87,0.00,CLR,SKC,0.00,0.0,WeatherDisplay:10.37,2013-07-14 08:36:00,
2013-07-14 03:41:00,80.9,77.0,29.84,SW,225,3.5,3.5,88,0.00,CLR,SKC,0.00,0.0,WeatherDisplay:10.37,2013-07-14 08:41:00,
2013-07-14 03:46:00,80.8,76.9,29.84,ESE,119,3.5,3.5,88,0.00,CLR,SKC,0.00,0.0,WeatherDisplay:10.37,2013-07-14 08:46:00,
2013-07-14 03:51:00,80.8,76.9,29.84,WSW,249,1.1,0.0,88,0.00,CLR,SKC,0.00,0.0,WeatherDisplay:10.37,2013-07-14 08:51:00,
2013-07-14 03:56:00,80.7,76.8,29.84,ESE,111,3.5,3.5,88,0.00,CLR,SKC,0.00,0.0,WeatherDisplay:10.37,2013-07-14 08:56:00,
2013-07-14 04:01:00,80.7,76.8,29.84,South,191,1.1,1.1,88,0.00,CLR,SKC,0.00,0.0,WeatherDisplay:10.37,2013-07-14 09:01:00,
2013-07-14 04:06:00,80.6,76.7,29.84,SSW,200,1.1,1.1,88,0.00,CLR,SKC,0.00,0.0,WeatherDisplay:10.37,2013-07-14 09:06:00,
2013-07-14 04:11:00,80.5,76.6,29.84,SE,128,0.0,0.0,88,0.00,CLR,SKC,0.00,0.0,WeatherDisplay:10.37,2013-07-14 09:11:00,
2013-07-14 04:16:00,80.5,76.6,29.84,South,190,1.1,0.0,88,0.00,CLR,SKC,0.00,0.0,WeatherDisplay:10.37,2013-07-14 09:16:00,
2013-07-14 04:21:00,80.4,76.5,29.84,SW,214,2.3,2.3,88,0.00,CLR,SKC,0.00,0.0,WeatherDisplay:10.37,2013-07-14 09:21:00,
2013-07-14 04:26:00,80.3,76.4,29.84,SSW,211,1.1,1.1,88,0.00,CLR,SKC,0.00,0.0,WeatherDisplay:10.37,2013-07-14 09:26:00,
2013-07-14 04:31:00,80.2,76.7,29.84,South,172,1.1,1.1,89,0.00,CLR,SKC,0.00,0.0,WeatherDisplay:10.37,2013-07-14 09:31:00,
2013-07-14 04:36:00,80.0,76.1,29.84,SE,133,2.3,2.3,88,0.00,CLR,SKC,0.00,0.0,WeatherDisplay:10.37,2013-07-14 09:36:00,
2013-07-14 04:41:00,80.0,76.5,29.85,South,172,5.8,0.0,89,0.00,CLR,SKC,0.00,0.0,WeatherDisplay:10.37,2013-07-14 09:41:00,
2013-07-14 04:46:00,79.9,76.0,29.85,SSW,200,1.1,1.1,88,0.00,CLR,SKC,0.00,0.0,WeatherDisplay:10.37,2013-07-14 09:46:00,
2013-07-14 04:51:00,79.8,75.9,29.85,West,269,2.3,2.3,88,0.00,CLR,SKC,0.00,0.0,WeatherDisplay:10.37,2013-07-14 09:51:00,
2013-07-14 04:56:00,79.7,75.8,29.85,SW,215,1.1,1.1,88,0.00,CLR,SKC,0.00,0.0,WeatherDisplay:10.37,2013-07-14 09:56:00,
2013-07-14 05:01:00,79.8,75.9,29.85,SE,135,2.0,2.0,88,0.00,CLR,SKC,0.00,0.0,WeatherDisplay:10.37,2013-07-14 10:01:00,
2013-07-14 05:06:00,79.7,75.8,29.85,SSW,201,1.1,0.0,88,0.00,CLR,SKC,0.00,0.0,WeatherDisplay:10.37,2013-07-14 10:06:00,
2013-07-14 05:11:00,79.7,75.8,29.85,South,182,0.0,0.0,88,0.00,CLR,SKC,0.00,0.0,WeatherDisplay:10.37,2013-07-14 10:11:00,
2013-07-14 05:16:00,79.7,75.8,29.85,ESE,103,1.1,1.1,88,0.00,CLR,SKC,0.00,0.0,WeatherDisplay:10.37,2013-07-14 10:16:00,
2013-07-14 05:21:00,79.6,75.7,29.85,WSW,252,2.0,2.0,88,0.00,CLR,SKC,0.00,0.0,WeatherDisplay:10.37,2013-07-14 10:21:00,
2013-07-14 05:26:00,79.6,75.7,29.85,ESE,117,2.3,2.3,88,0.00,CLR,SKC,0.00,0.0,WeatherDisplay:10.37,2013-07-14 10:26:00,
2013-07-14 05:31:00,79.6,75.7,29.85,WSW,252,1.1,1.1,88,0.00,CLR,SKC,0.00,0.0,WeatherDisplay:10.37,2013-07-14 10:31:00,
2013-07-14 05:36:00,79.6,75.7,29.85,SSE,160,4.0,4.0,88,0.00,CLR,SKC,0.00,0.0,WeatherDisplay:10.37,2013-07-14 10:36:00,
2013-07-14 05:41:00,79.5,75.6,29.85,South,173,2.3,2.3,88,0.00,CLR,SKC,0.00,0.0,WeatherDisplay:10.37,2013-07-14 10:41:00,
2013-07-14 05:46:00,79.4,75.5,29.85,SSW,204,1.1,1.1,88,0.00,CLR,SKC,0.00,0.0,WeatherDisplay:10.37,2013-07-14 10:46:00,
2013-07-14 05:51:00,79.5,75.6,29.85,SW,218,0.0,0.2,88,0.00,CLR,SKC,0.00,0.0,WeatherDisplay:10.37,2013-07-14 10:51:00,
2013-07-14 05:56:00,79.5,75.6,29.85,WNW,285,1.1,1.1,88,0.00,CLR,SKC,0.00,0.0,WeatherDisplay:10.37,2013-07-14 10:56:00,
2013-07-14 06:01:00,79.5,75.6,29.85,South,180,1.0,1.0,88,0.00,CLR,SKC,0.00,0.0,WeatherDisplay:10.37,2013-07-14 11:01:00,
2013-07-14 06:06:00,79.4,75.5,29.85,SE,143,4.0,4.0,88,0.00,CLR,SKC,0.00,0.0,WeatherDisplay:10.37,2013-07-14 11:06:00,
2013-07-14 06:11:00,79.4,75.9,29.85,SSE,160,1.1,1.1,89,0.00,CLR,SKC,0.00,0.0,WeatherDisplay:10.37,2013-07-14 11:11:00,
2013-07-14 06:16:00,79.3,75.4,29.85,ESE,113,3.5,3.5,88,0.00,CLR,SKC,0.00,0.0,WeatherDisplay:10.37,2013-07-14 11:16:00,
2013-07-14 06:21:00,79.3,75.8,29.85,WSW,246,2.3,2.3,89,0.00,CLR,SKC,0.00,0.0,WeatherDisplay:10.37,2013-07-14 11:21:00,
2013-07-14 06:26:00,79.2,75.3,29.85,WSW,242,3.5,3.5,88,0.00,CLR,SKC,0.00,0.0,WeatherDisplay:10.37,2013-07-14 11:26:00,
2013-07-14 06:31:00,79.2,75.7,29.85,SW,221,4.6,4.6,89,0.00,CLR,SKC,0.00,0.0,WeatherDisplay:10.37,2013-07-14 11:31:00,
2013-07-14 06:36:00,79.2,75.7,29.85,SSW,204,2.3,2.3,89,0.00,CLR,SKC,0.00,0.0,WeatherDisplay:10.37,2013-07-14 11:36:00,
2013-07-14 06:41:00,79.1,75.6,29.85,SSE,163,1.1,1.1,89,0.00,CLR,SKC,0.00,0.0,WeatherDisplay:10.37,2013-07-14 11:41:00,
2013-07-14 06:46:00,79.0,75.5,29.85,South,188,2.3,2.3,89,0.00,CLR,SKC,0.00,0.0,WeatherDisplay:10.37,2013-07-14 11:46:00,
2013-07-14 06:51:00,79.0,75.5,29.85,SSE,157,3.5,3.5,89,0.00,CLR,SKC,0.00,5.0,WeatherDisplay:10.37,2013-07-14 11:51:00,
2013-07-14 06:56:00,78.8,75.3,29.86,SSW,206,2.3,2.3,89,0.00,CLR,SKC,0.00,9.0,WeatherDisplay:10.37,2013-07-14 11:56:00,
2013-07-14 07:01:00,78.8,75.3,29.86,South,186,1.1,0.0,89,0.00,CLR,SKC,0.00,16.0,WeatherDisplay:10.37,2013-07-14 12:01:00,
2013-07-14 07:06:00,78.7,75.2,29.86,SSE,156,1.1,1.1,89,0.00,CLR,SKC,0.00,21.0,WeatherDisplay:10.37,2013-07-14 12:06:00,
2013-07-14 07:11:00,78.7,75.2,29.86,SSW,202,1.1,1.1,89,0.00,CLR,SKC,0.00,23.0,WeatherDisplay:10.37,2013-07-14 12:11:00,
2013-07-14 07:16:00,78.7,75.2,29.86,South,173,1.1,1.1,89,0.00,CLR,SKC,0.00,28.0,WeatherDisplay:10.37,2013-07-14 12:16:00,
2013-07-14 07:21:00,78.7,75.2,29.86,SSW,202,2.3,2.3,89,0.00,CLR,SKC,0.00,42.0,WeatherDisplay:10.37,2013-07-14 12:21:00,
2013-07-14 07:26:00,78.8,75.3,29.87,SSE,148,1.1,1.1,89,0.00,CLR,SKC,0.00,74.0,WeatherDisplay:10.37,2013-07-14 12:26:00,
2013-07-14 07:31:00,79.0,75.5,29.87,SSE,164,3.5,3.5,89,0.00,CLR,SKC,0.00,105.0,WeatherDisplay:10.37,2013-07-14 12:31:00,
2013-07-14 07:36:00,79.2,75.7,29.87,SW,216,2.3,2.3,89,0.00,CLR,SKC,0.00,104.0,WeatherDisplay:10.37,2013-07-14 12:36:00,
2013-07-14 07:41:00,79.4,75.9,29.87,South,185,3.5,3.5,89,0.00,CLR,SKC,0.00,97.0,WeatherDisplay:10.37,2013-07-14 12:41:00,
2013-07-14 07:46:00,79.6,75.7,29.87,SE,139,2.3,2.3,88,0.00,CLR,SKC,0.00,116.0,WeatherDisplay:10.37,2013-07-14 12:46:00,
2013-07-14 07:51:00,79.9,76.0,29.87,SE,142,1.1,1.1,88,0.00,CLR,SKC,0.00,93.0,WeatherDisplay:10.37,2013-07-14 12:51:00,
2013-07-14 07:56:00,80.1,76.2,29.87,ESE,121,2.3,2.3,88,0.00,CLR,SKC,0.00,76.0,WeatherDisplay:10.37,2013-07-14 12:56:00,
2013-07-14 08:01:00,80.3,76.1,29.87,ESE,120,2.3,2.3,87,0.00,CLR,SKC,0.00,91.0,WeatherDisplay:10.37,2013-07-14 13:01:00,
2013-07-14 08:06:00,80.6,76.4,29.87,South,175,2.3,2.3,87,0.00,CLR,SKC,0.00,90.0,WeatherDisplay:10.37,2013-07-14 13:06:00,
2013-07-14 08:11:00,80.7,76.5,29.87,SE,144,3.5,3.5,87,0.00,CLR,SKC,0.00,81.0,WeatherDisplay:10.37,2013-07-14 13:11:00,
2013-07-14 08:16:00,81.0,76.4,29.87,ESE,120,2.3,2.3,86,0.00,CLR,SKC,0.00,86.0,WeatherDisplay:10.37,2013-07-14 13:16:00,
2013-07-14 08:21:00,81.2,76.6,29.87,South,175,3.5,3.5,86,0.00,CLR,SKC,0.00,98.0,WeatherDisplay:10.37,2013-07-14 13:21:00,
2013-07-14 08:26:00,81.6,76.6,29.87,South,183,2.3,2.3,85,0.00,CLR,SKC,0.00,120.0,WeatherDisplay:10.37,2013-07-14 13:26:00,
2013-07-14 08:31:00,81.8,76.8,29.87,SSE,167,3.5,3.5,85,0.00,CLR,SKC,0.00,162.0,WeatherDisplay:10.37,2013-07-14 13:31:00,
2013-07-14 08:36:00,82.1,76.8,29.87,SE,140,3.5,3.5,84,0.00,CLR,SKC,0.00,178.0,WeatherDisplay:10.37,2013-07-14 13:36:00,
2013-07-14 08:41:00,82.3,77.0,29.87,NNE,28,1.1,1.1,84,0.00,CLR,SKC,0.00,227.0,WeatherDisplay:10.37,2013-07-14 13:41:00,
2013-07-14 08:46:00,82.4,77.1,29.87,ESE,122,2.3,2.3,84,0.00,CLR,SKC,0.00,251.0,WeatherDisplay:10.37,2013-07-14 13:46:00,
2013-07-14 08:51:00,82.7,77.0,29.87,SW,229,3.5,3.5,83,0.00,CLR,SKC,0.00,309.0,WeatherDisplay:10.37,2013-07-14 13:51:00,
2013-07-14 08:56:00,82.9,76.8,29.87,SW,221,4.0,4.0,82,0.00,CLR,SKC,0.00,308.0,WeatherDisplay:10.37,2013-07-14 13:56:00,
2013-07-14 09:01:00,83.1,77.0,29.87,SW,221,3.5,3.5,82,0.00,CLR,SKC,0.00,346.0,WeatherDisplay:10.37,2013-07-14 14:01:00,
2013-07-14 09:06:00,83.4,77.0,29.87,SSE,155,5.8,5.8,81,0.00,CLR,SKC,0.00,380.0,WeatherDisplay:10.37,2013-07-14 14:06:00,
2013-07-14 09:11:00,83.7,76.9,29.87,SW,231,6.9,6.9,80,0.00,CLR,SKC,0.00,411.0,WeatherDisplay:10.37,2013-07-14 14:11:00,
2013-07-14 09:16:00,84.0,76.8,29.87,ESE,106,5.8,5.8,79,0.00,CLR,SKC,0.00,513.0,WeatherDisplay:10.37,2013-07-14 14:16:00,
2013-07-14 09:21:00,84.0,76.8,29.87,WSW,238,3.5,3.5,79,0.00,CLR,SKC,0.00,348.0,WeatherDisplay:10.37,2013-07-14 14:21:00,
2013-07-14 09:26:00,84.2,76.6,29.87,SSW,211,2.3,2.3,78,0.00,CLR,SKC,0.00,348.0,WeatherDisplay:10.37,2013-07-14 14:26:00,
2013-07-14 09:31:00,84.1,76.5,29.87,WSW,246,2.3,2.3,78,0.00,CLR,SKC,0.00,250.0,WeatherDisplay:10.37,2013-07-14 14:31:00,
2013-07-14 09:36:00,84.2,76.6,29.87,SSW,198,3.5,3.5,78,0.00,CLR,SKC,0.00,257.0,WeatherDisplay:10.37,2013-07-14 14:36:00,
2013-07-14 09:41:00,84.6,77.0,29.87,ENE,72,6.9,6.9,78,0.00,CLR,SKC,0.00,563.0,WeatherDisplay:10.37,2013-07-14 14:41:00,
2013-07-14 09:46:00,85.1,77.5,29.87,ENE,74,3.5,3.5,78,0.00,CLR,SKC,0.00,513.0,WeatherDisplay:10.37,2013-07-14 14:46:00,
2013-07-14 09:51:00,85.2,77.6,29.87,South,185,3.5,3.5,78,0.00,CLR,SKC,0.00,496.0,WeatherDisplay:10.37,2013-07-14 14:51:00,
2013-07-14 09:56:00,85.6,77.9,29.87,SE,141,6.9,6.9,78,0.00,CLR,SKC,0.00,673.0,WeatherDisplay:10.37,2013-07-14 14:56:00,
2013-07-14 10:01:00,86.0,77.9,29.87,South,178,10.4,10.4,77,0.00,CLR,SKC,0.00,721.0,WeatherDisplay:10.37,2013-07-14 15:01:00,
2013-07-14 10:06:00,86.2,77.7,29.87,SE,146,3.5,3.5,76,0.00,CLR,SKC,0.00,652.0,WeatherDisplay:10.37,2013-07-14 15:06:00,
2013-07-14 10:11:00,86.2,77.3,29.87,ESE,122,6.9,6.9,75,0.00,CLR,SKC,0.00,698.0,WeatherDisplay:10.37,2013-07-14 15:11:00,
2013-07-14 10:16:00,86.5,77.6,29.87,ESE,113,4.6,4.6,75,0.00,CLR,SKC,0.00,710.0,WeatherDisplay:10.37,2013-07-14 15:16:00,
2013-07-14 10:21:00,86.7,77.4,29.87,SSE,153,5.8,5.8,74,0.00,CLR,SKC,0.00,721.0,WeatherDisplay:10.37,2013-07-14 15:21:00,
2013-07-14 10:26:00,86.8,77.5,29.87,South,169,4.6,4.6,74,0.00,CLR,SKC,0.00,629.0,WeatherDisplay:10.37,2013-07-14 15:26:00,
2013-07-14 10:31:00,86.4,77.5,29.87,ESE,117,10.4,10.4,75,0.00,CLR,SKC,0.00,334.0,WeatherDisplay:10.37,2013-07-14 15:31:00,
2013-07-14 10:36:00,85.7,76.9,29.87,SE,133,10.4,10.4,75,0.00,CLR,SKC,0.00,327.0,WeatherDisplay:10.37,2013-07-14 15:36:00,
2013-07-14 10:41:00,85.2,77.2,29.87,SSE,153,5.0,5.0,77,0.00,CLR,SKC,0.00,406.0,WeatherDisplay:10.37,2013-07-14 15:41:00,
2013-07-14 10:46:00,85.1,77.1,29.87,SSE,150,5.8,5.8,77,0.00,CLR,SKC,0.00,536.0,WeatherDisplay:10.37,2013-07-14 15:46:00,
2013-07-14 10:51:00,84.9,76.9,29.87,SE,146,10.4,10.4,77,0.00,CLR,SKC,0.00,510.0,WeatherDisplay:10.37,2013-07-14 15:51:00,
2013-07-14 10:56:00,85.0,77.4,29.88,SE,131,10.4,10.4,78,0.00,CLR,SKC,0.00,635.0,WeatherDisplay:10.37,2013-07-14 15:56:00,
2013-07-14 11:01:00,85.1,77.1,29.88,SE,130,11.5,11.5,77,0.00,CLR,SKC,0.00,686.0,WeatherDisplay:10.37,2013-07-14 16:01:00,
2013-07-14 11:06:00,85.2,77.2,29.88,ESE,115,9.2,9.2,77,0.00,CLR,SKC,0.00,751.0,WeatherDisplay:10.37,2013-07-14 16:06:00,
2013-07-14 11:11:00,85.3,76.9,29.88,ESE,117,6.9,6.9,76,0.00,CLR,SKC,0.00,791.0,WeatherDisplay:10.37,2013-07-14 16:11:00,
2013-07-14 11:16:00,85.5,77.1,29.88,SSE,163,5.8,5.8,76,0.00,CLR,SKC,0.00,671.0,WeatherDisplay:10.37,2013-07-14 16:16:00,
2013-07-14 11:21:00,85.9,77.1,29.88,SE,124,9.2,9.2,75,0.00,CLR,SKC,0.00,823.0,WeatherDisplay:10.37,2013-07-14 16:21:00,
2013-07-14 11:26:00,86.2,76.9,29.88,ESE,117,6.9,6.9,74,0.00,CLR,SKC,0.00,812.0,WeatherDisplay:10.37,2013-07-14 16:26:00,
2013-07-14 11:31:00,86.0,77.1,29.88,SE,126,10.4,10.4,75,0.00,CLR,SKC,0.00,819.0,WeatherDisplay:10.37,2013-07-14 16:31:00,
2013-07-14 11:36:00,85.7,76.5,29.88,ESE,123,9.2,9.2,74,0.00,CLR,SKC,0.00,691.0,WeatherDisplay:10.37,2013-07-14 16:36:00,
2013-07-14 11:41:00,85.7,76.9,29.88,ESE,119,12.0,12.0,75,0.00,CLR,SKC,0.00,684.0,WeatherDisplay:10.37,2013-07-14 16:41:00,
2013-07-14 11:46:00,85.7,76.5,29.88,SE,144,8.1,8.1,74,0.00,CLR,SKC,0.00,543.0,WeatherDisplay:10.37,2013-07-14 16:46:00,
2013-07-14 11:51:00,85.7,76.5,29.88,ESE,121,7.0,7.0,74,0.00,CLR,SKC,0.00,592.0,WeatherDisplay:10.37,2013-07-14 16:51:00,
2013-07-14 11:56:00,86.0,76.7,29.88,SW,232,4.6,4.6,74,0.00,CLR,SKC,0.00,543.0,WeatherDisplay:10.37,2013-07-14 16:56:00,
2013-07-14 12:01:00,86.0,76.3,29.88,ESE,113,11.5,11.5,73,0.00,CLR,SKC,0.00,554.0,WeatherDisplay:10.37,2013-07-14 17:01:00,
2013-07-14 12:06:00,85.4,76.6,29.88,ESE,114,10.4,10.4,75,0.00,CLR,SKC,0.00,545.0,WeatherDisplay:10.37,2013-07-14 17:06:00,
2013-07-14 12:11:00,85.2,76.8,29.89,SE,144,10.4,10.4,76,0.00,CLR,SKC,0.00,475.0,WeatherDisplay:10.37,2013-07-14 17:11:00,
2013-07-14 12:16:00,85.1,77.1,29.89,South,175,11.5,11.5,77,0.00,CLR,SKC,0.00,613.0,WeatherDisplay:10.37,2013-07-14 17:16:00,
2013-07-14 12:21:00,84.7,76.7,29.89,ESE,121,11.5,11.5,77,0.00,CLR,SKC,0.00,701.0,WeatherDisplay:10.37,2013-07-14 17:21:00,
2013-07-14 12:26:00,84.8,77.2,29.90,SE,146,11.0,11.0,78,0.00,CLR,SKC,0.00,522.0,WeatherDisplay:10.37,2013-07-14 17:26:00,
2013-07-14 12:31:00,84.7,77.1,29.90,SE,146,10.4,10.4,78,0.00,CLR,SKC,0.00,640.0,WeatherDisplay:10.37,2013-07-14 17:31:00,
2013-07-14 12:36:00,85.0,77.0,29.90,East,96,11.5,11.5,77,0.00,CLR,SKC,0.00,744.0,WeatherDisplay:10.37,2013-07-14 17:36:00,
2013-07-14 12:42:00,84.5,76.9,29.90,ESE,117,11.5,11.5,78,0.00,CLR,SKC,0.00,652.0,WeatherDisplay:10.37,2013-07-14 17:42:00,
2013-07-14 12:47:00,84.4,76.8,29.90,ESE,122,11.5,11.5,78,0.00,CLR,SKC,0.00,617.0,WeatherDisplay:10.37,2013-07-14 17:47:00,
2013-07-14 12:52:00,84.7,77.1,29.90,SSW,196,11.5,11.5,78,0.00,CLR,SKC,0.00,849.0,WeatherDisplay:10.37,2013-07-14 17:52:00,
2013-07-14 12:57:00,85.3,77.7,29.90,East,92,6.0,6.0,78,0.00,CLR,SKC,0.00,754.0,WeatherDisplay:10.37,2013-07-14 17:57:00,
2013-07-14 13:02:00,85.2,76.8,29.90,SE,128,11.5,11.5,76,0.00,CLR,SKC,0.00,791.0,WeatherDisplay:10.37,2013-07-14 18:02:00,
2013-07-14 13:07:00,85.0,77.0,29.90,SE,130,11.5,11.5,77,0.00,CLR,SKC,0.00,766.0,WeatherDisplay:10.37,2013-07-14 18:07:00,
2013-07-14 13:12:00,85.0,77.4,29.90,SE,126,11.5,11.5,78,0.00,CLR,SKC,0.00,742.0,WeatherDisplay:10.37,2013-07-14 18:12:00,
2013-07-14 13:17:00,85.2,77.6,29.90,ESE,107,11.0,11.0,78,0.00,CLR,SKC,0.00,895.0,WeatherDisplay:10.37,2013-07-14 18:17:00,
2013-07-14 13:22:00,85.2,77.6,29.90,SSE,153,9.2,9.2,78,0.00,CLR,SKC,0.00,1041.0,WeatherDisplay:10.37,2013-07-14 18:22:00,
2013-07-14 13:27:00,85.3,77.3,29.90,SE,131,12.7,12.7,77,0.00,CLR,SKC,0.00,722.0,WeatherDisplay:10.37,2013-07-14 18:27:00,
2013-07-14 13:32:00,85.1,77.1,29.90,SSE,158,10.4,10.4,77,0.00,CLR,SKC,0.00,682.0,WeatherDisplay:10.37,2013-07-14 18:32:00,
2013-07-14 13:37:00,85.0,77.0,29.90,ESE,118,15.0,15.0,77,0.00,CLR,SKC,0.00,942.0,WeatherDisplay:10.37,2013-07-14 18:37:00,
2013-07-14 13:42:00,85.0,77.0,29.89,ESE,108,13.8,13.8,77,0.00,CLR,SKC,0.00,967.0,WeatherDisplay:10.37,2013-07-14 18:42:00,
2013-07-14 13:47:00,85.0,77.4,29.89,ESE,113,12.7,12.7,78,0.00,CLR,SKC,0.00,953.0,WeatherDisplay:10.37,2013-07-14 18:47:00,
2013-07-14 13:52:00,84.8,77.2,29.89,ESE,116,17.3,17.3,78,0.00,CLR,SKC,0.00,962.0,WeatherDisplay:10.37,2013-07-14 18:52:00,
2013-07-14 13:57:00,85.0,77.4,29.88,SE,128,12.0,12.0,78,0.00,CLR,SKC,0.00,933.0,WeatherDisplay:10.37,2013-07-14 18:57:00,
2013-07-14 14:02:00,85.1,77.1,29.88,ESE,109,12.7,12.7,77,0.00,CLR,SKC,0.00,947.0,WeatherDisplay:10.37,2013-07-14 19:02:00,
2013-07-14 14:07:00,85.4,77.4,29.88,SE,138,15.0,15.0,77,0.00,CLR,SKC,0.00,940.0,WeatherDisplay:10.37,2013-07-14 19:07:00,
2013-07-14 14:12:00,85.5,77.1,29.88,ESE,112,11.5,11.5,76,0.00,CLR,SKC,0.00,935.0,WeatherDisplay:10.37,2013-07-14 19:12:00,
2013-07-14 14:17:00,85.3,76.9,29.88,ESE,117,13.0,13.0,76,0.00,CLR,SKC,0.00,930.0,WeatherDisplay:10.37,2013-07-14 19:17:00,
2013-07-14 14:22:00,85.2,76.8,29.88,SE,126,12.0,12.0,76,0.00,CLR,SKC,0.00,928.0,WeatherDisplay:10.37,2013-07-14 19:22:00,
2013-07-14 14:27:00,85.0,77.0,29.87,ESE,115,16.1,16.1,77,0.00,CLR,SKC,0.00,926.0,WeatherDisplay:10.37,2013-07-14 19:27:00,
2013-07-14 14:32:00,85.4,77.4,29.87,SE,127,12.0,12.0,77,0.00,CLR,SKC,0.00,921.0,WeatherDisplay:10.37,2013-07-14 19:32:00,
2013-07-14 14:37:00,85.5,77.5,29.87,SE,133,14.0,14.0,77,0.00,CLR,SKC,0.00,909.0,WeatherDisplay:10.37,2013-07-14 19:37:00,
2013-07-14 14:42:00,85.2,76.8,29.87,SE,125,16.1,16.1,76,0.00,CLR,SKC,0.00,905.0,WeatherDisplay:10.37,2013-07-14 19:42:00,
2013-07-14 14:47:00,85.4,77.0,29.87,SE,134,13.8,13.8,76,0.00,CLR,SKC,0.00,900.0,WeatherDisplay:10.37,2013-07-14 19:47:00,
2013-07-14 14:52:00,85.6,77.2,29.87,East,93,13.8,13.8,76,0.00,CLR,SKC,0.00,888.0,WeatherDisplay:10.37,2013-07-14 19:52:00,
2013-07-14 14:57:00,85.8,77.4,29.86,SSE,154,11.0,11.0,76,0.00,CLR,SKC,0.00,853.0,WeatherDisplay:10.37,2013-07-14 19:57:00,
2013-07-14 15:02:00,85.7,77.3,29.86,ESE,117,15.0,15.0,76,0.00,CLR,SKC,0.00,835.0,WeatherDisplay:10.37,2013-07-14 20:02:00,
2013-07-14 15:07:00,85.2,76.8,29.86,ESE,105,17.3,17.3,76,0.00,CLR,SKC,0.00,863.0,WeatherDisplay:10.37,2013-07-14 20:07:00,
2013-07-14 15:12:00,85.5,77.1,29.86,ESE,118,18.4,18.4,76,0.00,CLR,SKC,0.00,860.0,WeatherDisplay:10.37,2013-07-14 20:12:00,
2013-07-14 15:17:00,85.6,76.8,29.86,SE,138,19.6,19.6,75,0.00,CLR,SKC,0.00,853.0,WeatherDisplay:10.37,2013-07-14 20:17:00,
2013-07-14 15:22:00,85.5,76.7,29.86,ESE,102,18.4,18.4,75,0.00,CLR,SKC,0.00,842.0,WeatherDisplay:10.37,2013-07-14 20:22:00,
2013-07-14 15:27:00,85.6,77.2,29.85,East,88,13.8,13.8,76,0.00,CLR,SKC,0.00,824.0,WeatherDisplay:10.37,2013-07-14 20:27:00,
2013-07-14 15:32:00,85.7,76.9,29.85,ESE,123,15.0,15.0,75,0.00,CLR,SKC,0.00,824.0,WeatherDisplay:10.37,2013-07-14 20:32:00,
2013-07-14 15:37:00,85.5,77.1,29.85,ESE,120,17.3,17.3,76,0.00,CLR,SKC,0.00,810.0,WeatherDisplay:10.37,2013-07-14 20:37:00,
2013-07-14 15:42:00,85.3,76.9,29.85,ESE,109,18.4,18.4,76,0.00,CLR,SKC,0.00,802.0,WeatherDisplay:10.37,2013-07-14 20:42:00,
2013-07-14 15:47:00,85.4,77.8,29.85,ESE,112,11.5,11.5,78,0.00,CLR,SKC,0.00,795.0,WeatherDisplay:10.37,2013-07-14 20:47:00,
2013-07-14 15:52:00,85.6,77.6,29.85,SE,131,13.8,13.8,77,0.00,CLR,SKC,0.00,784.0,WeatherDisplay:10.37,2013-07-14 20:52:00,
2013-07-14 15:57:00,85.7,77.7,29.84,ESE,102,10.4,10.4,77,0.00,CLR,SKC,0.00,773.0,WeatherDisplay:10.37,2013-07-14 20:57:00,
2013-07-14 16:02:00,85.5,77.9,29.84,ESE,123,18.4,18.4,78,0.00,CLR,SKC,0.00,758.0,WeatherDisplay:10.37,2013-07-14 21:02:00,
2013-07-14 16:07:00,85.4,77.8,29.84,ESE,123,16.1,16.1,78,0.00,CLR,SKC,0.00,752.0,WeatherDisplay:10.37,2013-07-14 21:07:00,
2013-07-14 16:12:00,85.2,77.2,29.84,ESE,121,13.8,13.8,77,0.00,CLR,SKC,0.00,733.0,WeatherDisplay:10.37,2013-07-14 21:12:00,
2013-07-14 16:17:00,85.5,77.9,29.84,ESE,108,15.0,15.0,78,0.00,CLR,SKC,0.00,724.0,WeatherDisplay:10.37,2013-07-14 21:17:00,
2013-07-14 16:22:00,85.5,77.9,29.84,ESE,105,11.5,11.5,78,0.00,CLR,SKC,0.00,714.0,WeatherDisplay:10.37,2013-07-14 21:22:00,
2013-07-14 16:27:00,85.3,77.7,29.84,ESE,107,15.0,15.0,78,0.00,CLR,SKC,0.00,722.0,WeatherDisplay:10.37,2013-07-14 21:27:00,
2013-07-14 16:32:00,85.5,77.5,29.84,ESE,111,17.3,17.3,77,0.00,CLR,SKC,0.00,687.0,WeatherDisplay:10.37,2013-07-14 21:32:00,
2013-07-14 16:37:00,85.2,77.6,29.84,ESE,112,12.7,12.7,78,0.00,CLR,SKC,0.00,675.0,WeatherDisplay:10.37,2013-07-14 21:37:00,
2013-07-14 16:42:00,85.1,77.5,29.83,SE,130,15.0,15.0,78,0.00,CLR,SKC,0.00,661.0,WeatherDisplay:10.37,2013-07-14 21:42:00,
2013-07-14 16:47:00,85.2,77.6,29.83,East,91,16.1,16.1,78,0.00,CLR,SKC,0.00,649.0,WeatherDisplay:10.37,2013-07-14 21:47:00,
2013-07-14 16:52:00,85.2,77.9,29.83,SE,132,11.5,11.5,79,0.00,CLR,SKC,0.00,636.0,WeatherDisplay:10.37,2013-07-14 21:52:00,
2013-07-14 16:57:00,85.3,77.7,29.83,ESE,114,17.0,17.0,78,0.00,CLR,SKC,0.00,443.0,WeatherDisplay:10.37,2013-07-14 21:57:00,
2013-07-14 17:02:00,84.8,77.2,29.83,ESE,119,16.1,16.1,78,0.00,CLR,SKC,0.00,598.0,WeatherDisplay:10.37,2013-07-14 22:02:00,
2013-07-14 17:06:00,84.6,77.0,29.83,SE,128,15.0,15.0,78,0.00,CLR,SKC,0.00,587.0,WeatherDisplay:10.37,2013-07-14 22:06:00,
2013-07-14 17:11:00,84.9,76.9,29.83,SE,139,19.6,19.6,77,0.00,CLR,SKC,0.00,573.0,WeatherDisplay:10.37,2013-07-14 22:11:00,
2013-07-14 17:16:00,85.0,77.0,29.83,ESE,117,15.0,15.0,77,0.00,CLR,SKC,0.00,570.0,WeatherDisplay:10.37,2013-07-14 22:16:00,
2013-07-14 17:21:00,85.1,76.3,29.83,ESE,121,16.1,16.1,75,0.00,CLR,SKC,0.00,550.0,WeatherDisplay:10.37,2013-07-14 22:21:00,
2013-07-14 17:27:00,85.1,76.7,29.82,ESE,121,15.0,15.0,76,0.00,CLR,SKC,0.00,557.0,WeatherDisplay:10.37,2013-07-14 22:27:00,
2013-07-14 17:31:00,85.0,76.6,29.82,ESE,119,16.1,16.1,76,0.00,CLR,SKC,0.00,524.0,WeatherDisplay:10.37,2013-07-14 22:31:00,
2013-07-14 17:36:00,85.0,77.4,29.82,ESE,121,16.1,16.1,78,0.00,CLR,SKC,0.00,503.0,WeatherDisplay:10.37,2013-07-14 22:36:00,
2013-07-14 17:41:00,85.1,77.1,29.82,ESE,117,17.3,17.3,77,0.00,CLR,SKC,0.00,499.0,WeatherDisplay:10.37,2013-07-14 22:41:00,
2013-07-14 17:46:00,85.2,77.2,29.82,ESE,109,15.0,15.0,77,0.00,CLR,SKC,0.00,512.0,WeatherDisplay:10.37,2013-07-14 22:46:00,
2013-07-14 17:51:00,85.1,77.1,29.82,SE,127,19.6,19.6,77,0.00,CLR,SKC,0.00,497.0,WeatherDisplay:10.37,2013-07-14 22:51:00,
2013-07-14 17:56:00,85.0,77.0,29.81,ESE,123,17.3,17.3,77,0.00,CLR,SKC,0.00,510.0,WeatherDisplay:10.37,2013-07-14 22:56:00,
2013-07-14 18:01:00,85.3,77.3,29.81,SE,144,11.5,11.5,77,0.00,CLR,SKC,0.00,427.0,WeatherDisplay:10.37,2013-07-14 23:01:00,
2013-07-14 18:06:00,85.2,77.2,29.81,SE,126,17.3,17.3,77,0.00,CLR,SKC,0.00,281.0,WeatherDisplay:10.37,2013-07-14 23:06:00,
2013-07-14 18:11:00,85.1,77.1,29.81,ESE,118,14.0,14.0,77,0.00,CLR,SKC,0.00,190.0,WeatherDisplay:10.37,2013-07-14 23:11:00,
2013-07-14 18:16:00,84.7,77.5,29.81,ESE,117,17.3,17.3,79,0.00,CLR,SKC,0.00,230.0,WeatherDisplay:10.37,2013-07-14 23:16:00,
2013-07-14 18:21:00,84.4,76.8,29.81,SE,143,18.4,18.4,78,0.00,CLR,SKC,0.00,387.0,WeatherDisplay:10.37,2013-07-14 23:21:00,
2013-07-14 18:26:00,84.3,77.1,29.81,ESE,103,17.3,17.3,79,0.00,CLR,SKC,0.00,216.0,WeatherDisplay:10.37,2013-07-14 23:26:00,
2013-07-14 18:31:00,84.2,77.4,29.81,SE,134,20.7,20.7,80,0.00,CLR,SKC,0.00,185.0,WeatherDisplay:10.37,2013-07-14 23:31:00,
2013-07-14 18:36:00,84.0,76.8,29.81,ESE,111,16.1,16.1,79,0.00,CLR,SKC,0.00,160.0,WeatherDisplay:10.37,2013-07-14 23:36:00,
2013-07-14 18:41:00,83.9,76.7,29.81,ESE,111,12.7,12.7,79,0.00,CLR,SKC,0.00,132.0,WeatherDisplay:10.37,2013-07-14 23:41:00,
2013-07-14 18:46:00,84.0,76.8,29.81,SSE,148,16.1,16.1,79,0.00,CLR,SKC,0.00,105.0,WeatherDisplay:10.37,2013-07-14 23:46:00,
2013-07-14 18:51:00,84.1,77.3,29.81,ESE,119,12.7,12.7,80,0.00,CLR,SKC,0.00,95.0,WeatherDisplay:10.37,2013-07-14 23:51:00,
2013-07-14 18:56:00,83.9,77.1,29.81,SE,132,15.0,15.0,80,0.00,CLR,SKC,0.00,90.0,WeatherDisplay:10.37,2013-07-14 23:56:00,
2013-07-14 19:01:00,83.7,76.9,29.81,SE,125,15.0,15.0,80,0.00,CLR,SKC,0.00,86.0,WeatherDisplay:10.37,2013-07-15 00:01:00,
2013-07-14 19:06:00,83.6,76.8,29.81,ESE,121,11.5,11.5,80,0.00,CLR,SKC,0.00,81.0,WeatherDisplay:10.37,2013-07-15 00:06:00,
2013-07-14 19:11:00,83.6,76.8,29.81,ESE,109,16.1,16.1,80,0.00,CLR,SKC,0.00,74.0,WeatherDisplay:10.37,2013-07-15 00:11:00,
2013-07-14 19:16:00,83.5,77.1,29.81,SE,128,17.3,17.3,81,0.00,CLR,SKC,0.00,67.0,WeatherDisplay:10.37,2013-07-15 00:16:00,
2013-07-14 19:21:00,83.4,76.2,29.81,ESE,121,17.3,17.3,79,0.00,CLR,SKC,0.00,62.0,WeatherDisplay:10.37,2013-07-15 00:21:00,
2013-07-14 19:26:00,83.4,76.2,29.81,SE,128,15.0,15.0,79,0.00,CLR,SKC,0.00,56.0,WeatherDisplay:10.37,2013-07-15 00:26:00,
2013-07-14 19:31:00,83.4,76.6,29.81,East,100,12.7,12.7,80,0.00,CLR,SKC,0.00,53.0,WeatherDisplay:10.37,2013-07-15 00:31:00,
2013-07-14 19:37:00,83.4,76.6,29.81,East,98,17.0,17.0,80,0.00,CLR,SKC,0.00,42.0,WeatherDisplay:10.37,2013-07-15 00:37:00,
2013-07-14 19:42:00,83.3,76.9,29.82,SE,140,19.6,19.6,81,0.00,CLR,SKC,0.00,35.0,WeatherDisplay:10.37,2013-07-15 00:42:00,
2013-07-14 19:47:00,83.3,76.9,29.82,ESE,109,13.8,13.8,81,0.00,CLR,SKC,0.00,30.0,WeatherDisplay:10.37,2013-07-15 00:47:00,
2013-07-14 19:52:00,83.2,76.8,29.82,ESE,106,17.3,17.3,81,0.00,CLR,SKC,0.00,25.0,WeatherDisplay:10.37,2013-07-15 00:52:00,
2013-07-14 19:57:00,83.2,77.1,29.82,SE,139,11.5,11.5,82,0.00,CLR,SKC,0.00,32.0,WeatherDisplay:10.37,2013-07-15 00:57:00,
2013-07-14 20:02:00,83.2,77.1,29.82,SE,136,17.0,17.0,82,0.00,CLR,SKC,0.00,26.0,WeatherDisplay:10.37,2013-07-15 01:02:00,
2013-07-14 20:07:00,83.1,77.0,29.82,ESE,120,15.0,15.0,82,0.00,CLR,SKC,0.00,12.0,WeatherDisplay:10.37,2013-07-15 01:07:00,
2013-07-14 20:12:00,83.1,77.0,29.82,ESE,123,13.8,13.8,82,0.00,CLR,SKC,0.00,9.0,WeatherDisplay:10.37,2013-07-15 01:12:00,
2013-07-14 20:17:00,83.0,76.9,29.82,East,98,15.0,15.0,82,0.00,CLR,SKC,0.00,5.0,WeatherDisplay:10.37,2013-07-15 01:17:00,
2013-07-14 20:22:00,82.9,76.5,29.82,SE,124,11.5,11.5,81,0.00,CLR,SKC,0.00,0.0,WeatherDisplay:10.37,2013-07-15 01:22:00,
2013-07-14 20:27:00,83.0,76.6,29.82,ESE,117,16.1,16.1,81,0.00,CLR,SKC,0.00,0.0,WeatherDisplay:10.37,2013-07-15 01:27:00,
2013-07-14 20:32:00,83.0,76.6,29.82,SSE,153,11.5,11.5,81,0.00,CLR,SKC,0.00,0.0,WeatherDisplay:10.37,2013-07-15 01:32:00,
2013-07-14 20:37:00,83.0,76.6,29.82,SE,142,16.1,16.1,81,0.00,CLR,SKC,0.00,0.0,WeatherDisplay:10.37,2013-07-15 01:37:00,
2013-07-14 20:42:00,83.0,76.9,29.82,SSE,149,13.8,13.8,82,0.00,CLR,SKC,0.00,0.0,WeatherDisplay:10.37,2013-07-15 01:42:00,
2013-07-14 20:47:00,82.9,76.8,29.82,ESE,119,11.5,11.5,82,0.00,CLR,SKC,0.00,0.0,WeatherDisplay:10.37,2013-07-15 01:47:00,
2013-07-14 20:52:00,82.8,76.7,29.82,SE,132,15.0,15.0,82,0.00,CLR,SKC,0.00,0.0,WeatherDisplay:10.37,2013-07-15 01:52:00,
2013-07-14 20:57:00,82.8,76.7,29.81,SSE,149,20.7,20.7,82,0.00,CLR,SKC,0.00,0.0,WeatherDisplay:10.37,2013-07-15 01:57:00,
2013-07-14 21:02:00,82.7,76.6,29.81,ESE,119,15.0,15.0,82,0.00,CLR,SKC,0.00,0.0,WeatherDisplay:10.37,2013-07-15 02:02:00,
2013-07-14 21:07:00,82.8,76.4,29.81,ESE,120,11.5,11.5,81,0.00,CLR,SKC,0.00,0.0,WeatherDisplay:10.37,2013-07-15 02:07:00,
2013-07-14 21:12:00,83.0,76.9,29.82,ESE,117,15.0,15.0,82,0.00,CLR,SKC,0.00,0.0,WeatherDisplay:10.37,2013-07-15 02:12:00,
2013-07-14 21:17:00,82.9,76.5,29.82,SSE,161,12.7,12.7,81,0.00,CLR,SKC,0.00,0.0,WeatherDisplay:10.37,2013-07-15 02:17:00,
2013-07-14 21:22:00,82.9,76.8,29.82,ESE,108,12.7,12.7,82,0.00,CLR,SKC,0.00,0.0,WeatherDisplay:10.37,2013-07-15 02:22:00,
2013-07-14 21:27:00,82.8,76.4,29.83,SSE,168,17.3,17.3,81,0.00,CLR,SKC,0.00,0.0,WeatherDisplay:10.37,2013-07-15 02:27:00,
2013-07-14 21:32:00,82.9,76.8,29.83,SE,136,13.8,13.8,82,0.00,CLR,SKC,0.00,0.0,WeatherDisplay:10.37,2013-07-15 02:32:00,
2013-07-14 21:37:00,82.8,76.7,29.83,ESE,118,12.7,12.7,82,0.00,CLR,SKC,0.00,0.0,WeatherDisplay:10.37,2013-07-15 02:37:00,
2013-07-14 21:42:00,82.9,76.8,29.85,ESE,116,6.9,6.9,82,0.00,CLR,SKC,0.00,0.0,WeatherDisplay:10.37,2013-07-15 02:42:00,
2013-07-14 21:47:00,82.9,76.8,29.85,SE,126,13.0,13.0,82,0.00,CLR,SKC,0.00,0.0,WeatherDisplay:10.37,2013-07-15 02:47:00,
2013-07-14 21:52:00,82.8,76.7,29.85,ESE,123,13.8,13.8,82,0.00,CLR,SKC,0.00,0.0,WeatherDisplay:10.37,2013-07-15 02:52:00,
2013-07-14 21:57:00,82.7,76.3,29.85,ESE,113,11.5,11.5,81,0.00,CLR,SKC,0.00,0.0,WeatherDisplay:10.37,2013-07-15 02:57:00,
2013-07-14 22:02:00,82.8,76.4,29.85,ESE,116,12.7,12.7,81,0.00,CLR,SKC,0.00,0.0,WeatherDisplay:10.37,2013-07-15 03:02:00,
2013-07-14 22:07:00,82.7,76.3,29.85,SSE,153,15.0,15.0,81,0.00,CLR,SKC,0.00,0.0,WeatherDisplay:10.37,2013-07-15 03:07:00,
2013-07-14 22:12:00,82.7,76.3,29.85,SE,144,13.8,13.8,81,0.00,CLR,SKC,0.00,0.0,WeatherDisplay:10.37,2013-07-15 03:12:00,
2013-07-14 22:17:00,82.7,76.6,29.85,SE,141,12.7,12.7,82,0.00,CLR,SKC,0.00,0.0,WeatherDisplay:10.37,2013-07-15 03:17:00,
2013-07-14 22:22:00,82.7,76.6,29.85,ESE,123,9.2,9.2,82,0.00,CLR,SKC,0.00,0.0,WeatherDisplay:10.37,2013-07-15 03:22:00,
2013-07-14 22:27:00,82.6,76.5,29.85,SE,137,13.8,13.8,82,0.00,CLR,SKC,0.00,0.0,WeatherDisplay:10.37,2013-07-15 03:27:00,
2013-07-14 22:32:00,82.6,76.2,29.85,SE,127,14.0,14.0,81,0.00,CLR,SKC,0.00,0.0,WeatherDisplay:10.37,2013-07-15 03:32:00,
2013-07-14 22:37:00,82.5,76.1,29.85,SE,127,17.3,17.3,81,0.00,CLR,SKC,0.00,0.0,WeatherDisplay:10.37,2013-07-15 03:37:00,
2013-07-14 22:42:00,82.6,76.2,29.86,SE,130,11.5,11.5,81,0.00,CLR,SKC,0.00,0.0,WeatherDisplay:10.37,2013-07-15 03:42:00,
2013-07-14 22:47:00,82.5,76.1,29.86,ESE,105,13.8,13.8,81,0.00,CLR,SKC,0.00,0.0,WeatherDisplay:10.37,2013-07-15 03:47:00,
2013-07-14 22:52:00,82.6,76.2,29.86,SE,134,10.4,10.4,81,0.00,CLR,SKC,0.00,0.0,WeatherDisplay:10.37,2013-07-15 03:52:00,
2013-07-14 22:57:00,82.5,76.1,29.85,SSE,155,9.2,9.2,81,0.00,CLR,SKC,0.00,0.0,WeatherDisplay:10.37,2013-07-15 03:57:00,
2013-07-14 23:01:00,82.6,76.5,29.85,SE,127,7.0,12.0,82,0.00,CLR,SKC,0.00,0.0,WeatherDisplay:10.37,2013-07-15 04:01:00,
2013-07-14 23:06:00,82.5,76.4,29.85,South,178,13.8,13.8,82,0.00,CLR,SKC,0.00,0.0,WeatherDisplay:10.37,2013-07-15 04:06:00,
2013-07-14 23:11:00,82.4,76.3,29.85,SE,134,10.0,10.0,82,0.00,CLR,SKC,0.00,0.0,WeatherDisplay:10.37,2013-07-15 04:11:00,
2013-07-14 23:16:00,82.3,75.9,29.85,South,182,11.5,11.5,81,0.00,CLR,SKC,0.00,0.0,WeatherDisplay:10.37,2013-07-15 04:16:00,
2013-07-14 23:21:00,82.3,75.9,29.85,ESE,114,13.8,13.8,81,0.00,CLR,SKC,0.00,0.0,WeatherDisplay:10.37,2013-07-15 04:21:00,
2013-07-14 23:26:00,82.4,76.0,29.85,SSE,151,13.8,13.8,81,0.00,CLR,SKC,0.00,0.0,WeatherDisplay:10.37,2013-07-15 04:26:00,
2013-07-14 23:31:00,82.4,76.3,29.85,SE,141,13.0,13.0,82,0.00,CLR,SKC,0.00,0.0,WeatherDisplay:10.37,2013-07-15 04:31:00,
2013-07-14 23:36:00,82.2,75.8,29.85,SE,145,13.8,13.8,81,0.00,CLR,SKC,0.00,0.0,WeatherDisplay:10.37,2013-07-15 04:36:00,
2013-07-14 23:41:00,82.3,75.5,29.85,ESE,119,13.8,13.8,80,0.00,CLR,SKC,0.00,0.0,WeatherDisplay:10.37,2013-07-15 04:41:00,
2013-07-14 23:46:00,82.5,75.7,29.85,ESE,120,9.2,9.2,80,0.00,CLR,SKC,0.00,0.0,WeatherDisplay:10.37,2013-07-15 04:46:00,
2013-07-14 23:51:00,82.3,75.1,29.85,SE,134,12.7,12.7,79,0.00,CLR,SKC,0.00,0.0,WeatherDisplay:10.37,2013-07-15 04:51:00,
2013-07-14 23:56:00,82.4,75.6,29.85,ESE,123,14.0,14.0,80,0.00,CLR,SKC,0.00,0.0,WeatherDisplay:10.37,2013-07-15 04:56:00,